Time;durP1;ratioP1;P1;durP2;ratioP2;P2;SDS_P1;SDS_P2;PMS_P1;PMS_P2;Temp;Humidity;BMP_temperature;BMP_pressure;BME280_temperature;BME280_humidity;BME280_pressure;Samples;Min_cycle;Max_cycle;Signal;HPM_P1;HPM_P2
2022/11/08 00:03:34;;;;;;;3.47;0.90;;;20.50;49.70;19.50;100663.00;;;;5066573;28;20139;-74
2022/11/08 00:14:13;;;;;;;3.25;0.93;;;20.50;49.70;19.50;100661.00;;;;5049534;28;20070;-74
2022/11/08 00:16:39;;;;;;;2.67;1.30;;;20.50;49.70;19.50;100659.00;;;;5070683;28;20033;-74
2022/11/08 00:19:05;;;;;;;4.27;1.47;;;20.50;49.70;19.50;100657.00;;;;5064481;28;20064;-74
2022/11/08 00:21:30;;;;;;;3.57;1.20;;;20.50;49.70;19.60;100659.00;;;;5072970;28;20059;-74
2022/11/08 00:23:56;;;;;;;5.27;1.13;;;20.50;49.70;19.60;100660.00;;;;5066706;28;20159;-74
2022/11/08 00:26:22;;;;;;;2.10;0.77;;;20.50;49.70;19.60;100655.00;;;;5066524;28;20119;-74
2022/11/08 00:28:48;;;;;;;2.03;1.17;;;20.50;49.70;19.60;100655.00;;;;5065854;28;20103;-74
2022/11/08 00:31:13;;;;;;;3.03;1.00;;;20.50;49.60;19.60;100660.00;;;;5068138;28;20125;-74
2022/11/08 00:33:39;;;;;;;4.07;1.10;;;20.50;49.60;19.60;100661.00;;;;5062876;28;20063;-74
2022/11/08 00:36:05;;;;;;;2.63;1.40;;;20.50;49.60;19.50;100660.00;;;;5068332;28;20078;-74
2022/11/08 00:38:31;;;;;;;3.25;1.02;;;20.50;49.60;19.50;100655.00;;;;5070480;28;20039;-74
2022/11/08 00:40:56;;;;;;;2.93;0.70;;;20.50;49.60;19.50;100656.00;;;;5066538;28;20036;-75
2022/11/08 00:43:22;;;;;;;2.93;1.07;;;20.50;49.60;19.50;100660.00;;;;5056702;28;20107;-74
2022/11/08 00:45:48;;;;;;;4.13;1.10;;;20.50;49.60;19.50;100668.00;;;;5050999;28;20547;-74
2022/11/08 00:48:14;;;;;;;2.83;0.87;;;20.50;49.60;19.50;100661.00;;;;5068960;28;20056;-74
2022/11/08 00:50:40;;;;;;;2.03;1.00;;;20.50;49.60;19.50;100657.00;;;;5071612;28;20063;-74
2022/11/08 00:53:05;;;;;;;1.85;0.98;;;20.50;49.60;19.50;100655.00;;;;5051503;28;20032;-74
2022/11/08 00:55:31;;;;;;;3.53;1.33;;;20.40;49.50;19.50;100658.00;;;;5048302;28;20110;-74
2022/11/08 00:57:57;;;;;;;2.53;1.00;;;20.40;49.50;19.50;100659.00;;;;5047131;28;20139;-74
2022/11/08 01:00:22;;;;;;;1.57;0.80;;;20.50;49.60;19.50;100659.00;;;;5068578;28;20111;-74
2022/11/08 01:03:17;;;;;;;3.77;0.97;;;20.40;49.50;19.50;100654.00;;;;5049608;28;20120;-74
2022/11/08 01:05:36;;;;;;;1.70;0.90;;;20.50;49.60;19.50;100655.00;;;;5068440;28;20385;-74
2022/11/08 01:08:02;;;;;;;4.13;1.40;;;20.40;49.50;19.50;100657.00;;;;5042922;28;20024;-74
2022/11/08 01:10:28;;;;;;;3.47;1.03;;;20.50;49.60;19.50;100649.00;;;;5069024;28;20501;-74
2022/11/08 01:12:54;;;;;;;4.17;1.17;;;20.50;49.60;19.50;100650.00;;;;5064759;28;20062;-74
2022/11/08 01:15:19;;;;;;;4.40;0.93;;;20.50;49.60;19.50;100654.00;;;;5068838;28;20133;-74
2022/11/08 01:17:45;;;;;;;2.40;0.97;;;20.40;49.50;19.50;100650.00;;;;5061928;28;20111;-74
2022/11/08 01:20:11;;;;;;;3.30;1.13;;;20.40;49.50;19.50;100647.00;;;;5070333;28;20120;-74
2022/11/08 01:22:37;;;;;;;2.17;0.87;;;20.40;49.50;19.50;100645.00;;;;5071691;28;20360;-74
2022/11/08 01:25:02;;;;;;;4.13;0.93;;;20.40;49.50;19.50;100646.00;;;;5065415;28;20892;-74
2022/11/08 01:27:28;;;;;;;2.97;1.05;;;20.40;49.50;19.50;100649.00;;;;5068205;28;20456;-75
2022/11/08 01:29:54;;;;;;;1.97;0.90;;;20.40;49.50;19.50;100641.00;;;;5068693;28;20063;-74
2022/11/08 01:32:20;;;;;;;1.23;0.80;;;20.40;49.50;19.50;100650.00;;;;5060878;28;20095;-74
2022/11/08 01:34:45;;;;;;;2.97;0.90;;;20.40;49.50;19.50;100644.00;;;;5065461;28;20059;-74
2022/11/08 01:37:11;;;;;;;4.40;1.00;;;20.40;49.50;19.50;100641.00;;;;5043185;28;20434;-74
2022/11/08 01:39:37;;;;;;;1.43;0.80;;;20.40;49.50;19.50;100639.00;;;;5066692;28;20517;-74
2022/11/08 01:42:03;;;;;;;1.47;0.73;;;20.40;50.20;19.50;100639.00;;;;5061999;28;20117;-74
2022/11/08 01:44:28;;;;;;;2.17;0.80;;;20.40;49.50;19.50;100634.00;;;;5064066;28;20036;-74
2022/11/08 01:46:54;;;;;;;6.07;1.60;;;20.40;49.50;19.50;100636.00;;;;5048916;28;20043;-74
2022/11/08 01:49:36;;;;;;;3.87;1.20;;;20.40;49.50;19.50;100637.00;;;;5068645;28;20067;-74
2022/11/08 01:52:17;;;;;;;3.05;0.82;;;20.40;49.50;19.50;100630.00;;;;5052298;28;20036;-74
2022/11/08 01:55:00;;;;;;;4.78;1.25;;;20.40;49.50;19.50;100625.00;;;;5050333;28;20471;-74
2022/11/08 01:57:52;;;;;;;3.78;1.08;;;20.40;49.50;19.50;100608.00;;;;5042572;28;20029;-74
2022/11/08 02:00:18;;;;;;;3.60;1.27;;;20.40;49.50;19.50;100622.00;;;;5057790;28;20196;-74
2022/11/08 02:02:48;;;;;;;2.50;0.97;;;20.40;49.50;19.50;100625.00;;;;5065396;28;20027;-74
2022/11/08 02:05:24;;;;;;;4.05;1.08;;;20.40;49.50;19.50;100621.00;;;;5034693;28;20028;-74
2022/11/08 02:07:56;;;;;;;5.17;1.40;;;20.40;49.50;19.50;100616.00;;;;5045929;28;20443;-74
2022/11/08 02:10:25;;;;;;;4.35;1.10;;;20.40;49.50;19.50;100608.00;;;;5050329;28;20043;-74
2022/11/08 02:12:52;;;;;;;3.28;0.90;;;20.40;49.50;19.50;100612.00;;;;5049979;28;20032;-74
2022/11/08 02:15:18;;;;;;;3.42;1.00;;;20.40;49.60;19.50;100620.00;;;;5048366;28;20021;-74
2022/11/08 02:17:43;;;;;;;2.87;0.83;;;20.30;49.50;19.50;100614.00;;;;5035283;28;20020;-74
2022/11/08 02:20:09;;;;;;;3.80;1.00;;;20.40;49.60;19.50;100615.00;;;;5053103;28;20103;-74
2022/11/08 02:22:42;;;;;;;2.13;0.85;;;20.40;49.60;19.50;100612.00;;;;5042585;28;20025;-74
2022/11/08 02:25:08;;;;;;;3.42;1.08;;;20.40;49.60;19.50;100617.00;;;;5035982;28;20025;-74
2022/11/08 02:27:33;;;;;;;1.83;0.97;;;20.40;49.60;19.50;100606.00;;;;5061583;28;20035;-74
2022/11/08 02:29:59;;;;;;;2.67;0.87;;;20.40;49.60;19.50;100609.00;;;;5072393;28;20157;-74
2022/11/08 02:32:25;;;;;;;3.80;1.00;;;20.40;49.60;19.50;100596.00;;;;5047165;28;20107;-74
2022/11/08 02:34:56;;;;;;;3.57;1.20;;;20.40;49.60;19.50;100606.00;;;;5070241;28;20107;-74
2022/11/08 02:37:22;;;;;;;3.38;0.85;;;20.40;49.50;19.50;100600.00;;;;5053389;28;20082;-74
2022/11/08 02:39:48;;;;;;;5.03;1.35;;;20.40;49.50;19.50;100607.00;;;;5051373;28;20037;-75
2022/11/08 02:42:17;;;;;;;2.93;0.80;;;20.40;49.50;19.50;100601.00;;;;5069218;28;20518;-74
2022/11/08 02:44:43;;;;;;;3.80;1.02;;;20.40;49.50;19.50;100605.00;;;;5068323;28;20071;-74
2022/11/08 02:47:09;;;;;;;3.17;0.88;;;20.40;49.50;19.50;100589.00;;;;5067863;28;20086;-74
2022/11/08 02:49:35;;;;;;;2.97;0.90;;;20.40;49.50;19.50;100595.00;;;;5067250;28;20036;-74
2022/11/08 02:52:01;;;;;;;2.27;0.77;;;20.40;49.50;19.50;100589.00;;;;5068027;28;20482;-74
2022/11/08 02:54:26;;;;;;;3.00;0.97;;;20.40;49.50;19.50;100582.00;;;;5069669;28;20122;-74
2022/11/08 02:56:52;;;;;;;3.77;1.40;;;20.40;49.50;19.50;100586.00;;;;5066995;28;20090;-74
2022/11/08 02:59:18;;;;;;;2.83;0.93;;;20.40;49.50;19.50;100582.00;;;;5071234;28;20115;-74
2022/11/08 03:01:43;;;;;;;2.40;1.00;;;20.40;49.50;19.50;100571.00;;;;5068964;28;20108;-74
2022/11/08 03:04:09;;;;;;;2.60;0.80;;;20.40;49.50;19.50;100576.00;;;;5071605;28;20103;-74
2022/11/08 03:06:35;;;;;;;5.57;1.13;;;20.40;49.50;19.50;100579.00;;;;5067510;28;20108;-74
2022/11/08 03:09:01;;;;;;;4.40;1.10;;;20.40;49.50;19.50;100576.00;;;;5047206;28;20043;-74
2022/11/08 03:11:27;;;;;;;2.17;0.73;;;20.50;49.50;19.50;100573.00;;;;5069729;28;20112;-74
2022/11/08 03:13:52;;;;;;;4.82;1.20;;;20.40;49.50;19.50;100564.00;;;;5049352;28;20038;-74
2022/11/08 03:16:18;;;;;;;3.27;1.00;;;20.40;49.50;19.50;100570.00;;;;5066725;28;20047;-74
2022/11/08 03:18:44;;;;;;;2.87;0.87;;;20.70;49.60;19.50;100566.00;;;;5070365;28;20147;-74
2022/11/08 03:21:10;;;;;;;3.37;1.20;;;20.40;49.50;19.50;100557.00;;;;5075714;28;20108;-74
2022/11/08 03:23:36;;;;;;;3.63;1.00;;;20.40;49.50;19.50;100561.00;;;;5052921;28;20020;-74
2022/11/08 03:26:02;;;;;;;3.08;0.75;;;20.40;49.50;19.50;100557.00;;;;5071724;28;20040;-74
2022/11/08 03:28:28;;;;;;;;;;;20.40;49.60;19.50;100553.00;;;;5072002;28;20028;-74
2022/11/08 03:30:54;;;;;;;1.50;0.60;;;20.40;49.60;19.50;100549.00;;;;5070138;28;19923;-74
2022/11/08 03:33:19;;;;;;;2.13;0.90;;;20.50;49.50;19.50;100550.00;;;;5071741;28;20051;-74
2022/11/08 03:35:49;;;;;;;3.53;1.33;;;20.40;49.50;19.50;100543.00;;;;5070802;28;20111;-74
2022/11/08 03:38:15;;;;;;;3.33;0.82;;;20.40;49.50;19.50;100560.00;;;;5049499;28;20146;-74
2022/11/08 03:40:40;;;;;;;3.63;1.25;;;20.40;49.50;19.50;100569.00;;;;5053288;28;20111;-74
2022/11/08 03:43:06;;;;;;;5.07;1.20;;;20.40;49.50;19.50;100546.00;;;;5053364;28;20036;-74
2022/11/08 03:45:32;;;;;;;3.03;1.00;;;20.40;49.60;19.50;100546.00;;;;5053746;28;20107;-74
2022/11/08 03:47:57;;;;;;;3.17;1.17;;;20.30;49.50;19.50;100556.00;;;;5071744;28;20067;-74
2022/11/08 03:50:23;;;;;;;2.17;0.80;;;20.40;49.60;19.50;100549.00;;;;5071028;28;20116;-74
2022/11/08 03:52:51;;;;;;;3.97;1.10;;;20.40;49.60;19.50;100548.00;;;;5070921;28;20024;-74
2022/11/08 03:55:18;;;;;;;2.42;0.90;;;20.40;49.60;19.50;100543.00;;;;5053963;28;20036;-74
2022/11/08 03:57:44;;;;;;;;;;;20.40;49.60;19.50;100553.00;;;;5071356;28;20390;-74
2022/11/08 04:00:11;;;;;;;2.22;1.08;;;20.40;49.60;19.50;100534.00;;;;5070449;28;20057;-74
2022/11/08 04:02:37;;;;;;;2.22;0.80;;;20.40;49.50;19.50;100544.00;;;;5054187;28;20052;-74
2022/11/08 04:05:05;;;;;;;4.18;1.05;;;20.40;49.50;19.50;100543.00;;;;5069854;28;20048;-74
2022/11/08 04:07:30;;;;;;;5.78;1.10;;;20.40;49.50;19.50;100540.00;;;;5036847;28;20381;-74
2022/11/08 04:09:56;;;;;;;2.80;1.20;;;20.30;49.50;19.50;100540.00;;;;5070402;28;20033;-74
2022/11/08 04:15:14;;;;;;;1.83;1.00;;;20.40;49.60;19.50;100537.00;;;;5070773;28;20489;-74
2022/11/08 04:23:14;;;;;;;5.25;1.20;;;20.40;49.50;19.50;100511.00;;;;5071624;28;20433;-74
2022/11/08 04:25:40;;;;;;;2.17;1.00;;;20.30;49.50;19.50;100518.00;;;;5052171;28;20449;-74
2022/11/08 04:28:06;;;;;;;1.07;0.63;;;20.30;49.50;19.50;100514.00;;;;5071381;28;20039;-74
2022/11/08 04:30:32;;;;;;;1.87;0.77;;;20.30;49.50;19.50;100514.00;;;;5068885;28;20524;-74
2022/11/08 04:33:01;;;;;;;1.87;0.93;;;20.40;49.50;19.50;100507.00;;;;5052096;28;20028;-74
2022/11/08 04:35:28;;;;;;;2.35;0.88;;;20.30;50.20;19.50;100512.00;;;;5050611;28;20025;-74
2022/11/08 04:37:58;;;;;;;;;;;20.40;49.50;19.40;100503.00;;;;5052781;28;20037;-74
2022/11/08 04:40:24;;;;;;;2.13;0.90;;;20.40;49.50;19.50;100506.00;;;;5053062;28;19959;-74
2022/11/08 04:42:50;;;;;;;5.27;1.20;;;20.40;49.40;19.40;100505.00;;;;5051923;28;20469;-74
2022/11/08 04:45:16;;;;;;;4.77;1.13;;;20.30;49.40;19.40;100492.00;;;;5070056;28;20492;-74
2022/11/08 04:47:45;;;;;;;2.10;0.90;;;20.40;49.40;19.50;100493.00;;;;5070394;28;20052;-74
2022/11/08 04:50:11;;;;;;;3.17;1.20;;;20.40;49.50;19.50;100486.00;;;;5069656;28;20021;-74
2022/11/08 04:52:37;;;;;;;3.20;1.00;;;20.30;49.40;19.50;100490.00;;;;5052862;28;20024;-74
2022/11/08 04:55:02;;;;;;;1.43;0.80;;;20.30;49.40;19.50;100484.00;;;;5069841;28;20543;-74
2022/11/08 04:57:28;;;;;;;1.73;0.73;;;20.30;49.40;19.50;100481.00;;;;5070905;28;20058;-74
2022/11/08 04:59:54;;;;;;;1.43;0.87;;;20.30;49.40;19.50;100476.00;;;;5068755;28;20144;-74
2022/11/08 05:02:19;;;;;;;3.83;0.80;;;20.30;49.50;19.50;100482.00;;;;5069203;28;20098;-74
2022/11/08 05:04:45;;;;;;;1.57;0.80;;;20.30;49.40;19.50;100468.00;;;;5069478;28;20137;-74
2022/11/08 05:07:11;;;;;;;3.57;1.20;;;20.30;49.40;19.40;100469.00;;;;5070286;28;20434;-74
2022/11/08 05:09:37;;;;;;;2.70;0.70;;;20.40;49.40;19.50;100461.00;;;;5070541;28;20525;-74
2022/11/08 05:12:02;;;;;;;4.07;1.30;;;20.30;49.40;19.40;100462.00;;;;5067849;28;20534;-74
2022/11/08 05:14:28;;;;;;;3.53;0.90;;;20.40;49.40;19.50;100457.00;;;;5053191;28;20052;-74
2022/11/08 05:16:54;;;;;;;2.35;0.70;;;20.30;49.40;19.50;100451.00;;;;5073506;28;20040;-74
2022/11/08 05:23:22;;;;;;;3.43;1.00;;;20.30;49.30;19.50;100459.00;;;;5068778;28;20032;-75
2022/11/08 05:24:52;;;;;;;1.80;0.80;;;20.30;49.30;19.40;100448.00;;;;5047537;28;20070;-74
2022/11/08 05:27:18;;;;;;;3.40;0.70;;;20.30;49.30;19.40;100431.00;;;;5067382;28;20040;-74
2022/11/08 05:29:44;;;;;;;4.00;1.00;;;20.30;49.30;19.40;100430.00;;;;5068533;28;20103;-75
2022/11/08 05:32:09;;;;;;;2.63;0.90;;;20.40;49.30;19.40;100433.00;;;;5071591;28;20111;-74
2022/11/08 05:34:35;;;;;;;1.27;0.60;;;20.30;49.30;19.40;100421.00;;;;5069727;28;20033;-74
2022/11/08 05:37:01;;;;;;;1.53;0.80;;;20.40;49.30;19.50;100413.00;;;;5068826;28;20060;-74
2022/11/08 05:39:26;;;;;;;2.33;0.97;;;20.30;49.30;19.50;100411.00;;;;5069808;28;20056;-74
2022/11/08 05:41:52;;;;;;;3.40;0.80;;;20.30;49.30;19.50;100415.00;;;;5070093;28;20096;-74
2022/11/08 05:44:18;;;;;;;4.13;1.00;;;20.30;49.30;19.50;100404.00;;;;5069040;28;20448;-74
2022/11/08 05:46:44;;;;;;;2.57;0.60;;;20.30;49.30;19.50;100410.00;;;;5070471;28;20608;-74
2022/11/08 05:49:11;;;;;;;3.25;0.88;;;20.30;49.30;19.50;100408.00;;;;5049964;28;20124;-74
2022/11/08 05:51:36;;;;;;;2.63;0.93;;;20.30;49.20;19.50;100397.00;;;;5068362;28;20024;-74
2022/11/08 05:54:02;;;;;;;3.07;0.97;;;20.40;49.20;19.50;100404.00;;;;5070949;28;20045;-74
2022/11/08 05:56:28;;;;;;;1.93;0.80;;;20.30;49.20;19.50;100404.00;;;;5050880;28;20252;-74
2022/11/08 05:58:53;;;;;;;6.23;0.97;;;20.40;49.20;19.50;100399.00;;;;5055143;28;20377;-74
2022/11/08 06:01:19;;;;;;;1.10;0.60;;;20.30;49.20;19.50;100400.00;;;;5072522;28;20111;-74
2022/11/08 06:03:46;;;;;;;2.87;0.80;;;20.30;49.20;19.50;100403.00;;;;5055538;28;20021;-74
2022/11/08 06:06:18;;;;;;;1.48;0.75;;;20.40;49.20;19.50;100394.00;;;;5072412;28;20459;-74
2022/11/08 06:08:44;;;;;;;2.05;0.82;;;20.30;49.20;19.50;100396.00;;;;5054302;28;21005;-74
2022/11/08 06:11:13;;;;;;;3.08;0.93;;;20.30;49.20;19.50;100404.00;;;;5051990;28;20028;-74
2022/11/08 06:13:39;;;;;;;2.50;0.80;;;20.40;49.20;19.50;100397.00;;;;5071982;28;20120;-74
2022/11/08 06:16:09;;;;;;;2.25;0.70;;;20.40;49.20;19.50;100391.00;;;;5055782;28;20036;-74
2022/11/08 06:18:35;;;;;;;3.05;0.95;;;20.30;49.20;19.50;100400.00;;;;5068857;28;20036;-74
2022/11/08 06:21:01;;;;;;;1.50;0.80;;;20.30;49.10;19.50;100391.00;;;;5053389;28;20037;-74
2022/11/08 06:23:27;;;;;;;2.78;1.02;;;20.30;49.10;19.50;100383.00;;;;5045980;28;20029;-74
2022/11/08 06:25:53;;;;;;;4.18;0.77;;;20.40;49.10;19.50;100385.00;;;;5054888;28;20037;-74
2022/11/08 06:28:19;;;;;;;2.70;0.90;;;20.40;49.10;19.50;100378.00;;;;5072965;28;20378;-74
2022/11/08 06:30:45;;;;;;;2.73;1.17;;;20.40;49.10;19.50;100359.00;;;;5078898;28;20044;-74
2022/11/08 06:33:11;;;;;;;1.65;0.85;;;20.40;49.10;19.50;100353.00;;;;5054132;28;20075;-74
2022/11/08 06:35:37;;;;;;;2.73;1.00;;;20.40;49.10;19.50;100347.00;;;;5076226;28;20370;-74
2022/11/08 06:38:03;;;;;;;3.07;1.00;;;20.30;49.00;19.50;100345.00;;;;5052677;28;20037;-74
2022/11/08 06:40:31;;;;;;;2.85;0.82;;;20.30;49.00;19.50;100361.00;;;;5055263;28;20028;-74
2022/11/08 06:42:57;;;;;;;1.83;0.90;;;20.40;49.00;19.50;100356.00;;;;5070576;28;20047;-74
2022/11/08 06:45:24;;;;;;;1.70;0.85;;;20.30;48.90;19.50;100364.00;;;;5051579;28;20029;-74
2022/11/08 06:47:57;;;;;;;3.35;1.20;;;20.40;49.00;19.50;100351.00;;;;5070846;28;20501;-74
2022/11/08 06:50:23;;;;;;;2.47;1.23;;;20.30;48.90;19.50;100358.00;;;;5070387;28;20028;-74
2022/11/08 06:52:58;;;;;;;1.90;1.13;;;20.40;49.00;19.50;100351.00;;;;5070358;28;20041;-74
2022/11/08 06:55:24;;;;;;;2.83;1.10;;;20.30;48.90;19.50;100351.00;;;;5053131;28;20195;-74
2022/11/08 06:57:49;;;;;;;2.90;1.20;;;20.40;49.00;19.50;100344.00;;;;5071006;28;20484;-74
2022/11/08 07:00:16;;;;;;;2.03;1.00;;;20.40;49.00;19.40;100338.00;;;;5051226;28;20024;-74
2022/11/08 07:02:43;;;;;;;2.95;1.00;;;20.30;48.90;19.50;100343.00;;;;5070430;28;20070;-74
2022/11/08 07:05:09;;;;;;;2.63;0.90;;;20.30;48.90;19.50;100356.00;;;;5068673;28;20028;-75
2022/11/08 07:07:35;;;;;;;3.00;1.15;;;20.40;49.00;19.50;100341.00;;;;5069983;28;20509;-74
2022/11/08 07:10:01;;;;;;;3.70;1.02;;;20.30;48.90;19.50;100335.00;;;;5081607;28;20051;-74
2022/11/08 07:12:27;;;;;;;5.88;1.40;;;20.30;49.00;19.50;100333.00;;;;5070442;28;20465;-74
2022/11/08 07:14:53;;;;;;;1.77;1.00;;;20.30;48.90;19.50;100334.00;;;;5070049;28;20047;-74
2022/11/08 07:17:19;;;;;;;3.17;0.97;;;20.30;49.10;19.50;100333.00;;;;5068919;28;20107;-74
2022/11/08 07:19:44;;;;;;;2.23;0.70;;;20.30;48.90;19.50;100330.00;;;;5069028;28;20410;-74
2022/11/08 07:22:10;;;;;;;1.67;0.80;;;20.30;48.90;19.50;100333.00;;;;5070260;28;20099;-74
2022/11/08 07:24:36;;;;;;;1.47;0.73;;;20.30;48.90;19.50;100342.00;;;;5070496;28;20111;-74
2022/11/08 07:27:01;;;;;;;2.93;0.80;;;20.30;48.90;19.50;100333.00;;;;5072599;28;20055;-74
2022/11/08 07:29:27;;;;;;;2.43;0.90;;;20.30;48.90;19.50;100333.00;;;;5070245;28;21018;-74
2022/11/08 07:31:53;;;;;;;2.30;1.00;;;20.40;48.90;19.50;100330.00;;;;5068587;28;20115;-74
2022/11/08 07:34:19;;;;;;;1.45;0.93;;;20.30;48.90;19.40;100335.00;;;;5067530;28;20020;-75
2022/11/08 07:36:45;;;;;;;2.33;0.85;;;20.30;48.90;19.40;100334.00;;;;5070201;28;20063;-75
2022/11/08 07:39:11;;;;;;;1.70;1.00;;;20.30;48.80;19.40;100339.00;;;;5051311;28;20481;-75
2022/11/08 07:41:37;;;;;;;3.23;1.00;;;20.30;48.80;19.40;100339.00;;;;5069775;28;20029;-74
2022/11/08 07:44:03;;;;;;;2.60;0.97;;;20.30;48.80;19.40;100346.00;;;;5069753;28;20541;-74
2022/11/08 07:46:28;;;;;;;2.77;0.90;;;20.30;48.80;19.40;100345.00;;;;5068864;28;20039;-74
2022/11/08 07:48:54;;;;;;;2.00;0.87;;;20.30;48.80;19.40;100337.00;;;;5068678;28;20112;-74
2022/11/08 07:51:20;;;;;;;3.03;0.90;;;20.30;48.80;19.40;100344.00;;;;5069917;28;20549;-74
2022/11/08 07:53:46;;;;;;;3.63;1.40;;;20.30;48.80;19.40;100340.00;;;;5071092;28;20107;-74
2022/11/08 07:56:11;;;;;;;2.50;1.20;;;20.30;48.80;19.40;100338.00;;;;5071677;28;20122;-74
2022/11/08 07:58:37;;;;;;;3.70;1.00;;;20.30;48.80;19.40;100348.00;;;;5070398;28;20104;-74
2022/11/08 08:01:05;;;;;;;2.87;1.00;;;20.30;48.80;19.40;100344.00;;;;5067760;28;20078;-74
2022/11/08 08:03:31;;;;;;;1.52;0.65;;;20.30;48.80;19.40;100341.00;;;;5073471;28;20024;-74
2022/11/08 08:05:57;;;;;;;2.77;0.90;;;20.30;48.80;19.40;100341.00;;;;5070194;28;20033;-74
2022/11/08 08:08:25;;;;;;;1.87;0.93;;;20.30;48.80;19.40;100348.00;;;;5070808;28;20104;-74
2022/11/08 08:10:55;;;;;;;3.80;0.93;;;20.30;48.80;19.40;100346.00;;;;5069747;28;20036;-74
2022/11/08 08:13:21;;;;;;;4.25;1.02;;;20.30;48.80;19.40;100346.00;;;;5051916;28;20474;-74
2022/11/08 08:15:47;;;;;;;1.73;0.80;;;20.30;48.80;19.40;100347.00;;;;5069418;28;20035;-74
2022/11/08 08:18:12;;;;;;;2.57;0.90;;;20.30;48.80;19.40;100344.00;;;;5060125;28;20135;-74
2022/11/08 08:20:38;;;;;;;2.70;0.90;;;20.30;48.80;19.40;100352.00;;;;5069240;28;20108;-74
2022/11/08 08:23:05;;;;;;;2.90;0.93;;;20.30;48.70;19.40;100339.00;;;;5070013;28;20034;-74
2022/11/08 08:25:31;;;;;;;1.77;0.77;;;20.30;48.70;19.40;100342.00;;;;5050650;28;20107;-74
2022/11/08 08:27:59;;;;;;;3.87;0.83;;;20.30;48.70;19.40;100341.00;;;;5048234;28;20032;-74
2022/11/08 08:30:25;;;;;;;2.20;0.80;;;20.30;48.80;19.40;100340.00;;;;5049342;28;20382;-74
2022/11/08 08:32:51;;;;;;;2.20;0.90;;;20.30;48.70;19.40;100342.00;;;;5069243;28;20025;-74
2022/11/08 08:35:16;;;;;;;1.60;0.70;;;20.30;48.80;19.40;100334.00;;;;5071500;28;20428;-74
2022/11/08 08:37:42;;;;;;;2.58;0.68;;;20.30;48.70;19.40;100325.00;;;;5069233;28;20077;-74
2022/11/08 08:40:09;;;;;;;2.73;0.67;;;20.30;48.70;19.40;100337.00;;;;5066932;28;20038;-74
2022/11/08 08:42:35;;;;;;;;;;;20.30;48.70;19.40;100316.00;;;;5055275;28;20023;-74
2022/11/08 08:45:00;;;;;;;2.15;0.80;;;20.40;48.80;19.40;100323.00;;;;5068566;28;19912;-74
2022/11/08 08:47:26;;;;;;;2.40;0.93;;;20.40;48.50;19.40;100321.00;;;;5069583;28;20031;-74
2022/11/08 08:49:52;;;;;;;2.38;0.80;;;20.30;48.60;19.40;100335.00;;;;5069256;28;20037;-74
2022/11/08 08:52:18;;;;;;;2.27;0.80;;;20.30;48.60;19.40;100321.00;;;;5069261;28;20101;-74
2022/11/08 08:54:44;;;;;;;3.10;1.10;;;20.40;48.60;19.40;100310.00;;;;5068045;28;20545;-74
2022/11/08 08:57:10;;;;;;;3.83;1.20;;;20.40;48.60;19.40;100305.00;;;;5069248;28;20028;-75
2022/11/08 08:59:36;;;;;;;1.63;0.70;;;20.40;48.60;19.40;100307.00;;;;5068582;28;20101;-74
2022/11/08 09:02:01;;;;;;;1.70;0.70;;;20.40;48.60;19.40;100301.00;;;;5051630;28;20587;-74
2022/11/08 09:04:27;;;;;;;2.93;0.90;;;20.30;48.50;19.40;100296.00;;;;5066134;28;20108;-74
2022/11/08 09:06:53;;;;;;;2.63;0.68;;;20.40;48.60;19.50;100292.00;;;;5068818;28;20033;-74
2022/11/08 09:09:20;;;;;;;1.80;0.90;;;20.40;48.50;19.40;100291.00;;;;5068008;28;20036;-75
2022/11/08 09:11:45;;;;;;;2.08;0.80;;;20.40;48.50;19.40;100285.00;;;;5049296;28;20111;-74
2022/11/08 09:14:11;;;;;;;1.00;0.57;;;20.40;48.40;19.40;100284.00;;;;5068105;28;20043;-74
2022/11/08 09:16:37;;;;;;;3.17;0.80;;;20.40;48.50;19.40;100275.00;;;;5069772;28;20171;-74
2022/11/08 09:19:03;;;;;;;1.03;0.60;;;20.40;48.40;19.40;100290.00;;;;5051115;28;20149;-74
2022/11/08 09:21:28;;;;;;;1.43;0.67;;;20.40;48.40;19.40;100275.00;;;;5051973;28;20028;-74
2022/11/08 09:23:54;;;;;;;2.20;0.70;;;20.40;48.40;19.40;100283.00;;;;5068931;28;20048;-74
2022/11/08 09:26:20;;;;;;;2.13;0.70;;;20.40;48.40;19.40;100282.00;;;;5067321;28;20157;-74
2022/11/08 09:28:46;;;;;;;1.57;0.50;;;20.40;48.40;19.40;100280.00;;;;5074300;28;20123;-74
2022/11/08 09:31:11;;;;;;;1.50;0.87;;;20.40;48.40;19.40;100271.00;;;;5073324;28;20151;-74
2022/11/08 09:33:38;;;;;;;1.00;0.70;;;20.30;48.30;19.40;100273.00;;;;5072810;28;20547;-74
2022/11/08 09:36:04;;;;;;;;;;;20.40;48.40;19.40;100267.00;;;;5072483;28;20033;-74
2022/11/08 09:38:30;;;;;;;3.20;0.65;;;20.40;48.50;19.40;100267.00;;;;5053928;28;19917;-74
2022/11/08 09:41:04;;;;;;;2.23;0.90;;;20.40;48.20;19.40;100263.00;;;;5074447;28;20024;-74
2022/11/08 09:43:54;;;;;;;2.15;1.00;;;20.40;48.30;19.40;100265.00;;;;5073369;28;20102;-74
2022/11/08 09:46:53;;;;;;;1.85;0.70;;;20.40;48.20;19.40;100268.00;;;;5049225;28;20028;-74
2022/11/08 09:49:24;;;;;;;1.52;0.85;;;20.40;48.20;19.40;100277.00;;;;5052283;28;20047;-74
2022/11/08 09:51:50;;;;;;;4.68;0.95;;;20.40;48.20;19.40;100284.00;;;;5051023;28;20032;-74
2022/11/08 09:54:23;;;;;;;3.13;0.63;;;20.40;48.30;19.40;100280.00;;;;5052060;28;20025;-74
2022/11/08 09:56:49;;;;;;;1.58;0.65;;;20.30;48.30;19.40;100276.00;;;;5056135;28;20020;-74
2022/11/08 09:59:41;;;;;;;1.48;0.68;;;20.40;48.30;19.40;100277.00;;;;5053612;28;20024;-74
2022/11/08 10:02:27;;;;;;;1.20;0.80;;;20.30;48.20;19.40;100286.00;;;;5036990;28;20485;-74
2022/11/08 10:05:10;;;;;;;0.93;0.50;;;20.40;48.30;19.40;100290.00;;;;5037556;28;20494;-74
2022/11/08 10:08:06;;;;;;;1.52;0.80;;;20.40;48.20;19.40;100284.00;;;;5055166;28;20031;-74
2022/11/08 10:11:06;;;;;;;2.63;0.68;;;20.40;48.30;19.40;100276.00;;;;5052857;28;20101;-74
2022/11/08 10:14:13;;;;;;;1.70;0.55;;;20.40;48.30;19.40;100277.00;;;;5062045;28;20111;-74
2022/11/08 10:16:56;;;;;;;1.85;0.50;;;20.40;48.30;19.40;100272.00;;;;5042266;28;20048;-74
2022/11/08 10:19:50;;;;;;;2.33;0.60;;;20.50;48.30;19.40;100265.00;;;;5053082;28;20082;-74
2022/11/08 10:22:55;;;;;;;1.55;0.50;;;20.40;48.20;19.40;100270.00;;;;5069807;28;20041;-74
2022/11/08 10:25:44;;;;;;;1.42;0.75;;;20.40;48.20;19.40;100279.00;;;;5070353;28;20028;-74
2022/11/08 10:28:16;;;;;;;3.00;0.88;;;20.40;48.00;19.40;100261.00;;;;5054262;28;20120;-74
2022/11/08 10:30:48;;;;;;;1.08;0.68;;;20.40;48.20;19.40;100256.00;;;;5055193;28;20047;-74
2022/11/08 10:33:19;;;;;;;2.13;0.98;;;20.40;48.10;19.40;100256.00;;;;5064865;28;20059;-74
2022/11/08 10:36:17;;;;;;;1.58;0.77;;;20.40;48.20;19.50;100251.00;;;;5038590;28;20089;-74
2022/11/08 10:39:10;;;;;;;1.33;0.55;;;20.40;48.20;19.40;100248.00;;;;5075465;28;20045;-74
2022/11/08 10:42:04;;;;;;;2.10;0.70;;;20.40;47.90;19.50;100238.00;;;;5072125;28;20036;-74
2022/11/08 10:44:29;;;;;;;1.45;0.73;;;20.40;48.10;19.50;100231.00;;;;5045142;28;20516;-74
2022/11/08 10:46:55;;;;;;;1.50;0.63;;;20.40;48.10;19.40;100233.00;;;;5060291;28;20024;-74
2022/11/08 10:49:39;;;;;;;1.27;0.70;;;20.40;47.90;19.40;100237.00;;;;5071806;28;20028;-74
2022/11/08 10:52:11;;;;;;;2.08;0.70;;;20.40;47.80;19.40;100237.00;;;;5052507;28;20029;-74
2022/11/08 10:54:53;;;;;;;1.48;0.80;;;20.40;47.70;19.50;100246.00;;;;5077075;28;20124;-74
2022/11/08 10:57:28;;;;;;;1.05;0.50;;;20.40;47.60;19.40;100238.00;;;;5029899;28;20048;-74
2022/11/08 10:59:55;;;;;;;2.35;0.95;;;20.40;47.60;19.40;100234.00;;;;5072182;28;20024;-74
2022/11/08 11:02:30;;;;;;;1.20;0.60;;;20.40;47.50;19.40;100221.00;;;;5051218;28;20024;-74
2022/11/08 11:05:15;;;;;;;2.05;0.68;;;20.40;47.60;19.40;100220.00;;;;5059028;28;20036;-74
2022/11/08 11:07:43;;;;;;;1.25;0.80;;;20.40;47.40;19.40;100229.00;;;;5066160;28;20032;-74
2022/11/08 11:10:19;;;;;;;1.95;0.60;;;20.40;47.30;19.40;100233.00;;;;5048690;28;20547;-74
2022/11/08 11:12:50;;;;;;;1.17;0.80;;;20.40;47.30;19.40;100227.00;;;;5049370;28;20043;-75
2022/11/08 11:15:15;;;;;;;2.45;0.80;;;20.40;47.20;19.40;100217.00;;;;5053484;28;20107;-73